sensor_id;sensor_type;location;lat;lon;timestamp;pressure;altitude;pressure_sealevel;temperature;humidity
70127;BME280;57491;42.694;23.314;2024-02-26T00:01:33;94707.19;;;11.40;68.65
70127;BME280;57491;42.694;23.314;2024-02-26T00:04:00;94703.13;;;11.31;70.10
70127;BME280;57491;42.694;23.314;2024-02-26T00:06:28;94691.28;;;11.22;69.64
70127;BME280;57491;42.694;23.314;2024-02-26T00:08:55;94705.41;;;11.41;68.95
70127;BME280;57491;42.694;23.314;2024-02-26T00:11:23;94703.59;;;11.41;68.76
70127;BME280;57491;42.694;23.314;2024-02-26T00:13:50;94701.81;;;11.42;69.15
70127;BME280;57491;42.694;23.314;2024-02-26T00:16:17;94695.38;;;11.44;70.34
70127;BME280;57491;42.694;23.314;2024-02-26T00:18:46;94684.56;;;11.34;69.78
70127;BME280;57491;42.694;23.314;2024-02-26T00:21:13;94703.81;;;11.46;70.24
70127;BME280;57491;42.694;23.314;2024-02-26T00:23:40;94704.00;;;11.45;69.09
70127;BME280;57491;42.694;23.314;2024-02-26T00:26:08;94698.44;;;11.48;68.86
70127;BME280;57491;42.694;23.314;2024-02-26T00:28:36;94687.34;;;11.39;68.09
70127;BME280;57491;42.694;23.314;2024-02-26T00:31:03;94689.97;;;11.39;67.70
70127;BME280;57491;42.694;23.314;2024-02-26T00:33:31;94692.78;;;11.38;67.05
70127;BME280;57491;42.694;23.314;2024-02-26T00:35:59;94687.72;;;11.30;68.55
70127;BME280;57491;42.694;23.314;2024-02-26T00:38:27;94686.19;;;11.42;69.36
70127;BME280;57491;42.694;23.314;2024-02-26T00:40:54;94684.41;;;11.49;70.28
70127;BME280;57491;42.694;23.314;2024-02-26T00:43:21;94681.03;;;11.55;71.33
70127;BME280;57491;42.694;23.314;2024-02-26T00:45:49;94678.31;;;11.35;69.55
70127;BME280;57491;42.694;23.314;2024-02-26T00:48:17;94673.56;;;11.39;68.64
70127;BME280;57491;42.694;23.314;2024-02-26T00:50:45;94678.16;;;11.37;67.38
70127;BME280;57491;42.694;23.314;2024-02-26T00:53:13;94675.16;;;11.40;68.26
70127;BME280;57491;42.694;23.314;2024-02-26T00:55:42;94667.19;;;11.48;68.81
70127;BME280;57491;42.694;23.314;2024-02-26T00:58:09;94663.00;;;11.53;69.25
70127;BME280;57491;42.694;23.314;2024-02-26T01:00:36;94649.34;;;11.45;69.55
70127;BME280;57491;42.694;23.314;2024-02-26T01:03:04;94657.16;;;11.45;68.95
70127;BME280;57491;42.694;23.314;2024-02-26T01:05:31;94648.53;;;11.44;68.77
70127;BME280;57491;42.694;23.314;2024-02-26T01:07:59;94652.94;;;11.44;68.76
70127;BME280;57491;42.694;23.314;2024-02-26T01:10:28;94659.38;;;11.48;68.38
70127;BME280;57491;42.694;23.314;2024-02-26T01:12:55;94654.56;;;11.45;68.63
70127;BME280;57491;42.694;23.314;2024-02-26T01:15:22;94662.19;;;11.53;67.87
70127;BME280;57491;42.694;23.314;2024-02-26T01:17:50;94659.00;;;11.51;67.30
70127;BME280;57491;42.694;23.314;2024-02-26T01:20:17;94651.34;;;11.43;67.52
70127;BME280;57491;42.694;23.314;2024-02-26T01:22:44;94646.47;;;11.27;67.53
70127;BME280;57491;42.694;23.314;2024-02-26T01:25:12;94662.13;;;11.40;69.26
70127;BME280;57491;42.694;23.314;2024-02-26T01:27:41;94655.75;;;11.42;67.33
70127;BME280;57491;42.694;23.314;2024-02-26T01:30:10;94648.13;;;11.41;67.03
70127;BME280;57491;42.694;23.314;2024-02-26T01:32:37;94651.72;;;11.40;67.57
70127;BME280;57491;42.694;23.314;2024-02-26T01:35:05;94653.72;;;11.38;66.38
70127;BME280;57491;42.694;23.314;2024-02-26T01:37:35;94651.31;;;11.30;66.43
70127;BME280;57491;42.694;23.314;2024-02-26T01:40:03;94646.84;;;11.24;67.51
70127;BME280;57491;42.694;23.314;2024-02-26T01:42:31;94640.50;;;11.33;68.21
70127;BME280;57491;42.694;23.314;2024-02-26T01:45:00;94642.09;;;11.34;68.50
70127;BME280;57491;42.694;23.314;2024-02-26T01:47:28;94644.94;;;11.39;68.12
70127;BME280;57491;42.694;23.314;2024-02-26T01:49:55;94650.13;;;11.39;67.75
70127;BME280;57491;42.694;23.314;2024-02-26T01:52:23;94638.47;;;11.28;67.75
70127;BME280;57491;42.694;23.314;2024-02-26T01:54:50;94640.09;;;11.29;67.98
70127;BME280;57491;42.694;23.314;2024-02-26T01:57:18;94635.25;;;11.26;68.43
70127;BME280;57491;42.694;23.314;2024-02-26T01:59:46;94636.69;;;11.29;68.74
70127;BME280;57491;42.694;23.314;2024-02-26T02:02:15;94632.91;;;11.38;69.08
70127;BME280;57491;42.694;23.314;2024-02-26T02:04:42;94639.50;;;11.40;67.62
70127;BME280;57491;42.694;23.314;2024-02-26T02:07:10;94632.28;;;11.29;67.42
70127;BME280;57491;42.694;23.314;2024-02-26T02:09:37;94632.06;;;11.31;67.80
70127;BME280;57491;42.694;23.314;2024-02-26T02:12:06;94631.88;;;11.26;69.42
70127;BME280;57491;42.694;23.314;2024-02-26T02:14:33;94638.69;;;11.33;68.52
70127;BME280;57491;42.694;23.314;2024-02-26T02:17:00;94621.22;;;11.21;68.17
70127;BME280;57491;42.694;23.314;2024-02-26T02:19:29;94618.00;;;11.18;68.80
70127;BME280;57491;42.694;23.314;2024-02-26T02:21:58;94621.22;;;11.21;68.88
70127;BME280;57491;42.694;23.314;2024-02-26T02:24:25;94636.84;;;11.21;68.80
70127;BME280;57491;42.694;23.314;2024-02-26T02:26:52;94633.22;;;11.15;69.33
70127;BME280;57491;42.694;23.314;2024-02-26T02:29:20;94643.19;;;11.11;69.13
70127;BME280;57491;42.694;23.314;2024-02-26T02:31:47;94630.31;;;11.03;69.56
70127;BME280;57491;42.694;23.314;2024-02-26T02:34:14;94616.69;;;10.95;70.00
70127;BME280;57491;42.694;23.314;2024-02-26T02:36:49;94631.13;;;11.04;70.13
70127;BME280;57491;42.694;23.314;2024-02-26T02:39:20;94617.94;;;11.05;70.95
70127;BME280;57491;42.694;23.314;2024-02-26T02:41:47;94629.97;;;11.13;69.46
70127;BME280;57491;42.694;23.314;2024-02-26T02:44:15;94633.78;;;11.10;69.20
70127;BME280;57491;42.694;23.314;2024-02-26T02:46:42;94623.78;;;11.07;69.40
70127;BME280;57491;42.694;23.314;2024-02-26T02:49:10;94626.16;;;11.09;69.46
70127;BME280;57491;42.694;23.314;2024-02-26T02:51:37;94637.56;;;11.08;70.27
70127;BME280;57491;42.694;23.314;2024-02-26T02:54:05;94643.63;;;11.15;70.42
70127;BME280;57491;42.694;23.314;2024-02-26T02:56:34;94642.03;;;11.21;69.97
70127;BME280;57491;42.694;23.314;2024-02-26T02:59:02;94653.84;;;11.23;70.23
70127;BME280;57491;42.694;23.314;2024-02-26T03:01:29;94648.47;;;11.25;70.37
70127;BME280;57491;42.694;23.314;2024-02-26T03:03:56;94644.88;;;11.32;70.64
70127;BME280;57491;42.694;23.314;2024-02-26T03:06:23;94645.91;;;11.38;70.34
70127;BME280;57491;42.694;23.314;2024-02-26T03:08:53;94644.94;;;11.39;70.11
70127;BME280;57491;42.694;23.314;2024-02-26T03:11:20;94652.56;;;11.47;70.27
70127;BME280;57491;42.694;23.314;2024-02-26T03:13:49;94656.56;;;11.49;70.41
70127;BME280;57491;42.694;23.314;2024-02-26T03:16:17;94649.34;;;11.45;70.00
70127;BME280;57491;42.694;23.314;2024-02-26T03:18:44;94646.56;;;11.46;69.90
70127;BME280;57491;42.694;23.314;2024-02-26T03:21:11;94640.53;;;11.46;70.11
70127;BME280;57491;42.694;23.314;2024-02-26T03:23:57;94644.38;;;11.50;69.59
70127;BME280;57491;42.694;23.314;2024-02-26T03:26:24;94636.91;;;11.40;69.27
70127;BME280;57491;42.694;23.314;2024-02-26T03:28:53;94629.72;;;11.49;70.84
70127;BME280;57491;42.694;23.314;2024-02-26T03:31:20;94619.13;;;11.50;71.09
70127;BME280;57491;42.694;23.314;2024-02-26T03:33:48;94626.13;;;11.50;70.15
70127;BME280;57491;42.694;23.314;2024-02-26T03:36:15;94616.56;;;11.57;70.65
70127;BME280;57491;42.694;23.314;2024-02-26T03:38:42;94627.34;;;11.54;70.19
70127;BME280;57491;42.694;23.314;2024-02-26T03:41:10;94623.00;;;11.61;69.58
70127;BME280;57491;42.694;23.314;2024-02-26T03:43:37;94627.97;;;11.56;69.34
70127;BME280;57491;42.694;23.314;2024-02-26T03:46:08;94631.16;;;11.58;69.07
70127;BME280;57491;42.694;23.314;2024-02-26T03:48:37;94631.16;;;11.58;69.24
70127;BME280;57491;42.694;23.314;2024-02-26T03:51:04;94627.34;;;11.54;69.58
70127;BME280;57491;42.694;23.314;2024-02-26T03:53:32;94611.34;;;11.57;68.74
70127;BME280;57491;42.694;23.314;2024-02-26T03:56:03;94609.34;;;11.59;70.02
70127;BME280;57491;42.694;23.314;2024-02-26T03:58:30;94606.56;;;11.60;70.28
70127;BME280;57491;42.694;23.314;2024-02-26T04:00:59;94619.00;;;11.65;70.10
70127;BME280;57491;42.694;23.314;2024-02-26T04:03:27;94603.91;;;11.54;69.78
70127;BME280;57491;42.694;23.314;2024-02-26T04:05:54;94620.38;;;11.61;69.84
70127;BME280;57491;42.694;23.314;2024-02-26T04:08:22;94606.16;;;11.57;70.43
70127;BME280;57491;42.694;23.314;2024-02-26T04:10:49;94602.16;;;11.61;70.17
70127;BME280;57491;42.694;23.314;2024-02-26T04:13:17;94605.34;;;11.56;70.20
70127;BME280;57491;42.694;23.314;2024-02-26T04:15:44;94606.75;;;11.59;70.19
70127;BME280;57491;42.694;23.314;2024-02-26T04:18:12;94608.13;;;11.55;70.19
70127;BME280;57491;42.694;23.314;2024-02-26T04:20:41;94540.13;;;11.10;70.69
70127;BME280;57491;42.694;23.314;2024-02-26T04:23:08;94577.63;;;11.36;70.47
70127;BME280;57491;42.694;23.314;2024-02-26T04:25:35;94601.09;;;11.49;70.40
70127;BME280;57491;42.694;23.314;2024-02-26T04:28:03;94590.69;;;11.49;70.85
70127;BME280;57491;42.694;23.314;2024-02-26T04:30:30;94595.88;;;11.49;71.01
70127;BME280;57491;42.694;23.314;2024-02-26T04:32:58;94571.22;;;11.25;70.39
70127;BME280;57491;42.694;23.314;2024-02-26T04:35:25;94600.06;;;11.37;69.97
70127;BME280;57491;42.694;23.314;2024-02-26T04:37:54;94595.66;;;11.37;70.32
70127;BME280;57491;42.694;23.314;2024-02-26T04:40:21;94603.88;;;11.34;69.71
70127;BME280;57491;42.694;23.314;2024-02-26T04:42:48;94612.09;;;11.44;70.86
70127;BME280;57491;42.694;23.314;2024-02-26T04:45:15;94609.28;;;11.39;70.32
70127;BME280;57491;42.694;23.314;2024-02-26T04:47:43;94614.28;;;11.41;70.50
70127;BME280;57491;42.694;23.314;2024-02-26T04:50:10;94616.50;;;11.44;70.48
70127;BME280;57491;42.694;23.314;2024-02-26T04:52:38;94609.84;;;11.35;70.04
70127;BME280;57491;42.694;23.314;2024-02-26T04:55:07;94604.25;;;11.31;70.21
70127;BME280;57491;42.694;23.314;2024-02-26T04:57:35;94614.06;;;11.36;70.56
70127;BME280;57491;42.694;23.314;2024-02-26T05:00:03;94620.47;;;11.33;69.98
70127;BME280;57491;42.694;23.314;2024-02-26T05:02:30;94609.22;;;11.19;70.45
70127;BME280;57491;42.694;23.314;2024-02-26T05:04:59;94614.41;;;11.19;70.31
70127;BME280;57491;42.694;23.314;2024-02-26T05:07:26;94625.41;;;11.22;69.92
70127;BME280;57491;42.694;23.314;2024-02-26T05:09:54;94632.88;;;11.31;70.23
70127;BME280;57491;42.694;23.314;2024-02-26T05:12:23;94635.06;;;11.28;70.97
70127;BME280;57491;42.694;23.314;2024-02-26T05:14:50;94634.31;;;11.34;70.18
70127;BME280;57491;42.694;23.314;2024-02-26T05:17:17;94641.47;;;11.32;69.68
70127;BME280;57491;42.694;23.314;2024-02-26T05:19:44;94636.84;;;11.21;69.89
70127;BME280;57491;42.694;23.314;2024-02-26T05:22:12;94656.50;;;11.30;70.07
70127;BME280;57491;42.694;23.314;2024-02-26T05:24:39;94657.25;;;11.24;69.47
70127;BME280;57491;42.694;23.314;2024-02-26T05:27:07;94653.84;;;11.23;70.75
70127;BME280;57491;42.694;23.314;2024-02-26T05:29:35;94664.09;;;11.25;71.39
70127;BME280;57491;42.694;23.314;2024-02-26T05:32:03;94663.03;;;11.19;70.66
70127;BME280;57491;42.694;23.314;2024-02-26T05:34:30;94662.34;;;11.04;70.65
70127;BME280;57491;42.694;23.314;2024-02-26T05:36:59;94671.75;;;10.98;70.95
70127;BME280;57491;42.694;23.314;2024-02-26T05:39:26;94670.59;;;11.07;71.03
70127;BME280;57491;42.694;23.314;2024-02-26T05:41:53;94666.81;;;11.10;70.72
70127;BME280;57491;42.694;23.314;2024-02-26T05:44:22;94674.78;;;11.08;70.52
70127;BME280;57491;42.694;23.314;2024-02-26T05:46:51;94669.78;;;11.07;70.49
70127;BME280;57491;42.694;23.314;2024-02-26T05:49:18;94676.88;;;11.19;70.84
70127;BME280;57491;42.694;23.314;2024-02-26T05:51:45;94679.31;;;11.28;70.18
70127;BME280;57491;42.694;23.314;2024-02-26T05:54:13;94677.13;;;11.31;70.25
70127;BME280;57491;42.694;23.314;2024-02-26T05:56:40;94669.94;;;11.33;70.32
70127;BME280;57491;42.694;23.314;2024-02-26T05:59:08;94671.16;;;11.37;70.65
70127;BME280;57491;42.694;23.314;2024-02-26T06:01:35;94672.38;;;11.41;70.18
70127;BME280;57491;42.694;23.314;2024-02-26T06:04:04;94675.38;;;11.45;70.12
70127;BME280;57491;42.694;23.314;2024-02-26T06:06:31;94682.97;;;11.40;70.44
70127;BME280;57491;42.694;23.314;2024-02-26T06:08:58;94676.19;;;11.45;70.16
70127;BME280;57491;42.694;23.314;2024-02-26T06:11:25;94683.00;;;11.46;70.18
70127;BME280;57491;42.694;23.314;2024-02-26T06:13:53;94690.41;;;11.49;69.40
70127;BME280;57491;42.694;23.314;2024-02-26T06:16:20;94695.84;;;11.54;69.84
70127;BME280;57491;42.694;23.314;2024-02-26T06:18:47;94689.28;;;11.65;69.61
70127;BME280;57491;42.694;23.314;2024-02-26T06:21:16;94681.47;;;11.65;69.21
70127;BME280;57491;42.694;23.314;2024-02-26T06:23:43;94671.88;;;11.66;68.95
70127;BME280;57491;42.694;23.314;2024-02-26T06:26:11;94680.69;;;11.71;69.29
70127;BME280;57491;42.694;23.314;2024-02-26T06:28:38;94689.38;;;11.85;68.38
70127;BME280;57491;42.694;23.314;2024-02-26T06:31:06;94682.41;;;11.92;69.23
70127;BME280;57491;42.694;23.314;2024-02-26T06:33:33;94672.34;;;11.82;68.67
70127;BME280;57491;42.694;23.314;2024-02-26T06:36:01;94680.16;;;11.82;68.71
70127;BME280;57491;42.694;23.314;2024-02-26T06:38:30;94660.09;;;11.76;68.38
70127;BME280;57491;42.694;23.314;2024-02-26T06:40:57;94690.22;;;11.92;67.99
70127;BME280;57491;42.694;23.314;2024-02-26T06:43:24;94690.00;;;11.93;68.04
70127;BME280;57491;42.694;23.314;2024-02-26T06:45:51;94686.81;;;11.91;67.76
70127;BME280;57491;42.694;23.314;2024-02-26T06:48:18;94692.59;;;11.87;67.46
70127;BME280;57491;42.694;23.314;2024-02-26T06:50:46;94685.88;;;11.71;67.62
70127;BME280;57491;42.694;23.314;2024-02-26T06:53:13;94687.16;;;11.75;66.60
70127;BME280;57491;42.694;23.314;2024-02-26T06:55:43;94686.56;;;11.80;66.33
70127;BME280;57491;42.694;23.314;2024-02-26T06:58:11;94693.38;;;11.74;66.10
70127;BME280;57491;42.694;23.314;2024-02-26T07:00:38;94675.47;;;11.71;66.26
70127;BME280;57491;42.694;23.314;2024-02-26T07:03:05;94685.97;;;11.78;66.83
70127;BME280;57491;42.694;23.314;2024-02-26T07:05:33;94694.56;;;11.78;68.68
70127;BME280;57491;42.694;23.314;2024-02-26T07:08:00;94675.13;;;11.74;67.35
70127;BME280;57491;42.694;23.314;2024-02-26T07:10:28;94695.59;;;11.90;67.88
70127;BME280;57491;42.694;23.314;2024-02-26T07:12:56;94685.41;;;11.95;67.71
70127;BME280;57491;42.694;23.314;2024-02-26T07:15:24;94701.84;;;12.02;67.17
70127;BME280;57491;42.694;23.314;2024-02-26T07:17:51;94701.47;;;12.05;66.44
70127;BME280;57491;42.694;23.314;2024-02-26T07:20:19;94690.44;;;11.97;66.14
70127;BME280;57491;42.694;23.314;2024-02-26T07:22:46;94700.09;;;12.10;65.87
70127;BME280;57491;42.694;23.314;2024-02-26T07:25:13;94708.34;;;12.20;65.95
70127;BME280;57491;42.694;23.314;2024-02-26T07:27:42;94699.13;;;12.24;67.58
70127;BME280;57491;42.694;23.314;2024-02-26T07:30:12;94700.53;;;12.33;65.66
70127;BME280;57491;42.694;23.314;2024-02-26T07:32:40;94700.34;;;12.41;66.35
70127;BME280;57491;42.694;23.314;2024-02-26T07:35:07;94704.72;;;12.27;66.20
70127;BME280;57491;42.694;23.314;2024-02-26T07:37:35;94694.88;;;12.23;65.49
70127;BME280;57491;42.694;23.314;2024-02-26T07:40:03;94700.09;;;12.23;66.62
70127;BME280;57491;42.694;23.314;2024-02-26T07:42:31;94705.50;;;12.15;66.26
70127;BME280;57491;42.694;23.314;2024-02-26T07:44:58;94715.34;;;12.26;65.77
70127;BME280;57491;42.694;23.314;2024-02-26T07:47:27;94708.94;;;12.28;66.23
70127;BME280;57491;42.694;23.314;2024-02-26T07:53:06;94697.50;;;12.29;65.81
70127;BME280;57491;42.694;23.314;2024-02-26T07:55:34;94709.56;;;12.43;66.29
70127;BME280;57491;42.694;23.314;2024-02-26T07:58:01;94711.56;;;12.61;65.25
70127;BME280;57491;42.694;23.314;2024-02-26T08:00:29;94713.78;;;12.58;64.93
70127;BME280;57491;42.694;23.314;2024-02-26T08:02:57;94706.56;;;12.73;63.95
70127;BME280;57491;42.694;23.314;2024-02-26T08:05:24;94694.94;;;12.82;64.30
70127;BME280;57491;42.694;23.314;2024-02-26T08:07:52;94707.16;;;12.94;63.88
70127;BME280;57491;42.694;23.314;2024-02-26T08:10:20;94700.94;;;13.02;62.63
70127;BME280;57491;42.694;23.314;2024-02-26T08:12:47;94700.75;;;13.17;62.71
70127;BME280;57491;42.694;23.314;2024-02-26T08:15:15;94693.50;;;13.25;63.43
70127;BME280;57491;42.694;23.314;2024-02-26T08:17:42;94693.53;;;13.19;62.64
70127;BME280;57491;42.694;23.314;2024-02-26T08:20:12;94694.06;;;13.34;63.10
70127;BME280;57491;42.694;23.314;2024-02-26T08:22:39;94689.84;;;13.39;62.22
70127;BME280;57491;42.694;23.314;2024-02-26T08:25:06;94694.84;;;13.48;62.37
70127;BME280;57491;42.694;23.314;2024-02-26T08:27:35;94692.19;;;13.61;62.50
70127;BME280;57491;42.694;23.314;2024-02-26T08:30:03;94685.47;;;13.78;61.75
70127;BME280;57491;42.694;23.314;2024-02-26T08:32:31;94690.63;;;13.98;60.76
70127;BME280;57491;42.694;23.314;2024-02-26T08:34:58;94680.53;;;14.08;60.13
70127;BME280;57491;42.694;23.314;2024-02-26T08:37:27;94693.31;;;14.22;59.08
70127;BME280;57491;42.694;23.314;2024-02-26T08:39:54;94689.22;;;14.33;58.71
70127;BME280;57491;42.694;23.314;2024-02-26T08:42:21;94690.13;;;14.52;58.66
70127;BME280;57491;42.694;23.314;2024-02-26T08:44:50;94688.22;;;14.65;57.64
70127;BME280;57491;42.694;23.314;2024-02-26T08:47:17;94685.47;;;14.85;57.34
70127;BME280;57491;42.694;23.314;2024-02-26T08:49:45;94676.97;;;14.90;55.79
70127;BME280;57491;42.694;23.314;2024-02-26T08:52:12;94676.47;;;15.17;55.14
70127;BME280;57491;42.694;23.314;2024-02-26T08:54:41;94680.66;;;15.25;55.23
70127;BME280;57491;42.694;23.314;2024-02-26T08:57:10;94683.56;;;15.35;54.71
70127;BME280;57491;42.694;23.314;2024-02-26T08:59:37;94673.66;;;15.37;54.32
70127;BME280;57491;42.694;23.314;2024-02-26T09:02:04;94672.97;;;15.48;54.27
70127;BME280;57491;42.694;23.314;2024-02-26T09:04:31;94676.47;;;15.60;54.02
70127;BME280;57491;42.694;23.314;2024-02-26T09:06:59;94672.84;;;15.61;53.49
70127;BME280;57491;42.694;23.314;2024-02-26T09:09:26;94666.09;;;15.47;53.90
70127;BME280;57491;42.694;23.314;2024-02-26T09:11:55;94669.94;;;15.45;53.90
70127;BME280;57491;42.694;23.314;2024-02-26T09:14:22;94659.09;;;15.05;54.13
70127;BME280;57491;42.694;23.314;2024-02-26T09:16:49;94672.78;;;14.82;55.12
70127;BME280;57491;42.694;23.314;2024-02-26T09:19:17;94663.88;;;14.90;55.09
70127;BME280;57491;42.694;23.314;2024-02-26T09:21:44;94665.13;;;15.05;54.92
70127;BME280;57491;42.694;23.314;2024-02-26T09:24:12;94676.72;;;14.91;55.87
70127;BME280;57491;42.694;23.314;2024-02-26T09:26:43;94664.47;;;15.10;55.39
70127;BME280;57491;42.694;23.314;2024-02-26T09:29:12;94668.78;;;15.41;54.78
70127;BME280;57491;42.694;23.314;2024-02-26T09:31:39;94651.72;;;15.56;54.08
70127;BME280;57491;42.694;23.314;2024-02-26T09:34:07;94653.47;;;15.44;54.13
70127;BME280;57491;42.694;23.314;2024-02-26T09:36:34;94658.31;;;15.77;54.17
70127;BME280;57491;42.694;23.314;2024-02-26T09:39:02;94661.25;;;15.99;52.78
70127;BME280;57491;42.694;23.314;2024-02-26T09:41:30;94655.97;;;16.17;51.04
70127;BME280;57491;42.694;23.314;2024-02-26T09:43:58;94658.91;;;16.39;50.82
70127;BME280;57491;42.694;23.314;2024-02-26T09:46:27;94647.22;;;16.23;50.20
70127;BME280;57491;42.694;23.314;2024-02-26T09:48:55;94655.22;;;16.28;50.38
70127;BME280;57491;42.694;23.314;2024-02-26T09:51:23;94650.16;;;16.15;50.40
70127;BME280;57491;42.694;23.314;2024-02-26T09:53:52;94629.69;;;15.94;50.64
70127;BME280;57491;42.694;23.314;2024-02-26T09:56:20;94648.50;;;16.32;50.18
70127;BME280;57491;42.694;23.314;2024-02-26T09:58:48;94637.00;;;16.33;49.37
70127;BME280;57491;42.694;23.314;2024-02-26T10:01:19;94640.44;;;16.45;48.69
70127;BME280;57491;42.694;23.314;2024-02-26T10:03:53;94640.75;;;16.37;48.70
70127;BME280;57491;42.694;23.314;2024-02-26T10:06:22;94635.06;;;16.40;49.36
70127;BME280;57491;42.694;23.314;2024-02-26T10:08:50;94649.06;;;16.76;48.99
70127;BME280;57491;42.694;23.314;2024-02-26T10:11:18;94641.66;;;16.31;49.07
70127;BME280;57491;42.694;23.314;2024-02-26T10:13:45;94643.44;;;16.19;48.49
70127;BME280;57491;42.694;23.314;2024-02-26T10:16:12;94636.28;;;15.48;50.26
70127;BME280;57491;42.694;23.314;2024-02-26T10:18:46;94647.03;;;15.22;50.40
70127;BME280;57491;42.694;23.314;2024-02-26T10:21:16;94633.16;;;15.40;50.60
70127;BME280;57491;42.694;23.314;2024-02-26T10:23:43;94608.03;;;15.14;50.42
70127;BME280;57491;42.694;23.314;2024-02-26T10:26:11;94627.78;;;15.35;50.76
70127;BME280;57491;42.694;23.314;2024-02-26T10:28:39;94627.13;;;15.57;50.32
70127;BME280;57491;42.694;23.314;2024-02-26T10:31:08;94625.63;;;15.80;49.54
70127;BME280;57491;42.694;23.314;2024-02-26T10:33:36;94617.03;;;15.73;49.81
70127;BME280;57491;42.694;23.314;2024-02-26T10:36:04;94612.69;;;15.96;49.20
70127;BME280;57491;42.694;23.314;2024-02-26T10:38:34;94604.31;;;16.06;48.64
70127;BME280;57491;42.694;23.314;2024-02-26T10:41:02;94605.38;;;16.28;48.13
70127;BME280;57491;42.694;23.314;2024-02-26T10:43:29;94604.28;;;16.47;47.49
70127;BME280;57491;42.694;23.314;2024-02-26T10:45:56;94600.31;;;16.57;47.23
70127;BME280;57491;42.694;23.314;2024-02-26T10:48:24;94599.13;;;16.29;47.09
70127;BME280;57491;42.694;23.314;2024-02-26T10:50:51;94610.75;;;16.33;47.04
70127;BME280;57491;42.694;23.314;2024-02-26T10:53:21;94610.16;;;16.31;47.45
70127;BME280;57491;42.694;23.314;2024-02-26T10:55:54;94606.94;;;16.06;47.94
70127;BME280;57491;42.694;23.314;2024-02-26T10:58:23;94581.78;;;15.87;48.42
70127;BME280;57491;42.694;23.314;2024-02-26T11:00:52;94597.94;;;16.14;48.08
70127;BME280;57491;42.694;23.314;2024-02-26T11:03:20;94589.94;;;16.08;47.39
70127;BME280;57491;42.694;23.314;2024-02-26T11:05:49;94585.84;;;16.13;47.53
70127;BME280;57491;42.694;23.314;2024-02-26T11:08:18;94609.50;;;16.36;47.19
70127;BME280;57491;42.694;23.314;2024-02-26T11:10:47;94591.56;;;15.80;48.22
70127;BME280;57491;42.694;23.314;2024-02-26T11:13:18;94587.47;;;15.84;48.29
70127;BME280;57491;42.694;23.314;2024-02-26T11:15:46;94585.22;;;15.99;48.65
70127;BME280;57491;42.694;23.314;2024-02-26T11:18:15;94573.84;;;16.05;47.82
70127;BME280;57491;42.694;23.314;2024-02-26T11:20:42;94600.41;;;15.97;47.83
70127;BME280;57491;42.694;23.314;2024-02-26T11:23:10;94582.31;;;15.77;48.05
70127;BME280;57491;42.694;23.314;2024-02-26T11:25:38;94597.16;;;15.53;49.14
70127;BME280;57491;42.694;23.314;2024-02-26T11:28:09;94579.66;;;15.47;49.25
70127;BME280;57491;42.694;23.314;2024-02-26T11:30:43;94565.97;;;15.45;49.46
70127;BME280;57491;42.694;23.314;2024-02-26T11:33:12;94592.84;;;15.89;48.55
70127;BME280;57491;42.694;23.314;2024-02-26T11:35:40;94573.97;;;15.32;48.83
70127;BME280;57491;42.694;23.314;2024-02-26T11:38:08;94563.75;;;15.12;49.88
70127;BME280;57491;42.694;23.314;2024-02-26T11:40:44;94586.53;;;15.30;49.40
70127;BME280;57491;42.694;23.314;2024-02-26T11:43:11;94567.72;;;15.33;49.38
70127;BME280;57491;42.694;23.314;2024-02-26T11:45:49;94574.41;;;15.47;49.43
70127;BME280;57491;42.694;23.314;2024-02-26T11:48:22;94576.81;;;15.97;47.75
70127;BME280;57491;42.694;23.314;2024-02-26T11:50:51;94569.38;;;15.94;47.64
70127;BME280;57491;42.694;23.314;2024-02-26T11:53:26;94569.66;;;16.16;47.21
70127;BME280;57491;42.694;23.314;2024-02-26T11:56:13;94565.69;;;16.36;46.32
70127;BME280;57491;42.694;23.314;2024-02-26T11:58:40;94571.91;;;16.12;46.03
70127;BME280;57491;42.694;23.314;2024-02-26T12:04:18;94554.34;;;16.01;46.78
70127;BME280;57491;42.694;23.314;2024-02-26T12:06:48;94568.19;;;16.31;45.92
70127;BME280;57491;42.694;23.314;2024-02-26T12:09:33;94567.09;;;16.39;45.57
70127;BME280;57491;42.694;23.314;2024-02-26T12:12:03;94579.69;;;16.19;45.60
70127;BME280;57491;42.694;23.314;2024-02-26T12:14:33;94572.84;;;16.06;46.53
70127;BME280;57491;42.694;23.314;2024-02-26T12:17:01;94573.44;;;16.31;45.55
70127;BME280;57491;42.694;23.314;2024-02-26T12:19:34;94577.88;;;16.31;45.28
70127;BME280;57491;42.694;23.314;2024-02-26T12:22:02;94576.59;;;15.98;46.04
70127;BME280;57491;42.694;23.314;2024-02-26T12:24:30;94574.72;;;15.87;46.00
70127;BME280;57491;42.694;23.314;2024-02-26T12:26:58;94579.56;;;16.02;46.14
70127;BME280;57491;42.694;23.314;2024-02-26T12:29:25;94570.22;;;15.76;46.16
70127;BME280;57491;42.694;23.314;2024-02-26T12:31:52;94579.44;;;16.08;44.93
70127;BME280;57491;42.694;23.314;2024-02-26T12:34:20;94582.69;;;16.34;44.26
70127;BME280;57491;42.694;23.314;2024-02-26T12:36:49;94598.56;;;16.50;43.85
70127;BME280;57491;42.694;23.314;2024-02-26T12:39:16;94586.16;;;16.81;43.49
70127;BME280;57491;42.694;23.314;2024-02-26T12:41:46;94571.75;;;17.18;42.59
70127;BME280;57491;42.694;23.314;2024-02-26T12:44:15;94569.72;;;17.49;41.78
70127;BME280;57491;42.694;23.314;2024-02-26T12:46:43;94587.16;;;17.78;40.78
70127;BME280;57491;42.694;23.314;2024-02-26T12:49:14;94591.13;;;17.40;41.69
70127;BME280;57491;42.694;23.314;2024-02-26T12:51:43;94576.44;;;17.68;41.62
70127;BME280;57491;42.694;23.314;2024-02-26T12:54:13;94548.00;;;18.26;40.06
70127;BME280;57491;42.694;23.314;2024-02-26T12:56:41;94573.31;;;18.78;38.67
70127;BME280;57491;42.694;23.314;2024-02-26T12:59:08;94561.91;;;19.10;38.27
70127;BME280;57491;42.694;23.314;2024-02-26T13:01:36;94555.81;;;19.70;36.53